Terminal Aerodrome Forecast
Issued by NWS Tuscon, AZ

Home | Current Version | Previous Version | Text Only | Print | Product List | Glossary On
Versions: 1 2 3 4 5 6 7 8 9 10 11 12
000
FTUS45 KTWC 170520
TAFTUS
TAF
KTUS 170520Z 1706/1806 14007KT P6SM OVC120
     FM170900 12008KT P6SM VCSH OVC080
     FM171100 13010KT P6SM -SHRA SCT040 OVC060
     FM180100 15007KT P6SM OVC080=

USA.gov is the U.S. government's official web portal to all federal, state and local government web resources and services.